Time;durP1;ratioP1;P1;durP2;ratioP2;P2;SDS_P1;SDS_P2;PMS_P1;PMS_P2;Temp;Humidity;BMP_temperature;BMP_pressure;BME280_temperature;BME280_humidity;BME280_pressure;Samples;Min_cycle;Max_cycle;Signal;HPM_P1;HPM_P2
2021/11/04 00:02:23;;;;;;;7.30;4.57;;;7.70;99.90;7.60;99121.00;;;;4934950;28;106928;-64
2021/11/04 00:04:49;;;;;;;5.47;3.20;;;7.70;99.90;7.60;99119.00;;;;4939092;28;88013;-63
2021/11/04 00:07:15;;;;;;;6.63;3.97;;;7.70;99.90;7.60;99117.00;;;;4937561;28;108400;-65
2021/11/04 00:09:41;;;;;;;3.63;3.17;;;7.70;99.90;7.50;99112.00;;;;4939266;28;87130;-64
2021/11/04 00:12:08;;;;;;;6.60;3.90;;;7.60;99.90;7.50;99112.00;;;;4938697;28;90074;-66
2021/11/04 00:14:34;;;;;;;7.50;4.37;;;7.60;99.90;7.40;99134.00;;;;4937871;28;95144;-65
2021/11/04 00:16:59;;;;;;;6.70;4.17;;;7.50;99.90;7.40;99136.00;;;;4937904;28;107748;-65
2021/11/04 00:19:26;;;;;;;7.40;4.50;;;7.50;99.90;7.30;99151.00;;;;4937094;28;118918;-64
2021/11/04 00:21:51;;;;;;;6.03;4.90;;;7.50;99.90;7.30;99149.00;;;;4938558;28;88939;-64
2021/11/04 00:24:17;;;;;;;5.43;4.00;;;7.40;99.90;7.30;99143.00;;;;4937926;28;111130;-64
2021/11/04 00:26:43;;;;;;;5.47;4.20;;;7.40;99.90;7.30;99137.00;;;;4937193;28;107721;-64
2021/11/04 00:29:09;;;;;;;7.17;5.00;;;7.40;99.90;7.30;99143.00;;;;4938941;28;88269;-64
2021/11/04 00:31:35;;;;;;;6.00;3.97;;;7.40;99.90;7.30;99138.00;;;;4937058;28;115561;-65
2021/11/04 00:34:02;;;;;;;4.40;4.00;;;7.70;99.90;7.30;99138.00;;;;4938058;28;111185;-64
2021/11/04 00:36:27;;;;;;;5.77;4.33;;;7.40;99.90;7.30;99128.00;;;;4937561;28;91129;-64
2021/11/04 00:38:53;;;;;;;6.67;4.30;;;7.40;99.90;7.30;99137.00;;;;4938575;28;88049;-64
2021/11/04 00:41:20;;;;;;;7.53;5.50;;;7.30;99.90;7.30;99136.00;;;;4936389;28;118050;-63
2021/11/04 00:43:46;;;;;;;8.23;4.47;;;7.30;99.90;7.30;99118.00;;;;4937374;28;107133;-64
2021/11/04 00:46:13;;;;;;;10.17;3.90;;;7.40;99.90;7.30;99114.00;;;;4938135;28;87662;-65
2021/11/04 00:48:38;;;;;;;6.20;4.63;;;7.30;99.90;7.30;99108.00;;;;4937557;28;103965;-64
2021/11/04 00:51:04;;;;;;;6.73;4.07;;;7.30;99.90;7.20;99108.00;;;;4937080;28;116847;-64
2021/11/04 00:53:33;;;;;;;6.77;4.57;;;7.40;99.90;7.30;99106.00;;;;4937559;28;105306;-64
2021/11/04 00:56:01;;;;;;;6.97;5.23;;;7.30;99.90;7.30;99102.00;;;;4938158;28;91563;-63
2021/11/04 00:58:26;;;;;;;6.33;4.33;;;7.40;99.90;7.30;99094.00;;;;4952647;28;88200;-63
2021/11/04 01:00:53;;;;;;;5.10;4.30;;;7.30;99.90;7.30;99098.00;;;;4936968;28;116782;-64
2021/11/04 01:03:19;;;;;;;7.80;4.60;;;7.40;99.90;7.30;99086.00;;;;4938218;28;87997;-64
2021/11/04 01:05:45;;;;;;;6.50;4.73;;;7.40;99.90;7.30;99089.00;;;;4937222;28;88826;-65
2021/11/04 01:08:11;;;;;;;8.27;4.97;;;7.40;99.90;7.30;99081.00;;;;4937661;28;112903;-65
2021/11/04 01:10:37;;;;;;;5.63;4.50;;;7.40;99.90;7.30;99073.00;;;;4936284;28;117396;-64
2021/11/04 01:13:03;;;;;;;8.23;4.37;;;7.40;99.90;7.40;99060.00;;;;4938154;28;87427;-64
2021/11/04 01:15:29;;;;;;;7.43;5.83;;;7.40;99.90;7.30;99065.00;;;;4936705;28;87526;-63
2021/11/04 01:17:56;;;;;;;8.00;4.30;;;7.50;99.90;7.30;99050.00;;;;4937507;28;88362;-64
2021/11/04 01:20:22;;;;;;;8.60;4.17;;;7.40;99.90;7.30;99044.00;;;;4937034;28;117911;-65
2021/11/04 01:22:49;;;;;;;7.73;4.47;;;7.40;99.90;7.30;99042.00;;;;4937846;28;88379;-65
2021/11/04 01:25:15;;;;;;;6.20;4.50;;;7.40;99.90;7.30;99029.00;;;;4951928;28;90643;-65
2021/11/04 01:27:40;;;;;;;7.83;4.60;;;7.30;99.90;7.30;99034.00;;;;4936662;28;119044;-64
2021/11/04 01:30:08;;;;;;;9.73;5.27;;;7.40;99.90;7.30;99036.00;;;;4937230;28;88670;-63
2021/11/04 01:32:34;;;;;;;8.90;4.30;;;7.40;99.90;7.30;99031.00;;;;4937193;28;87683;-64
2021/11/04 01:35:20;;;;;;;9.10;5.37;;;7.40;99.90;7.30;99044.00;;;;4936911;28;98697;-64
2021/11/04 01:37:46;;;;;;;9.43;4.43;;;7.30;99.90;7.30;99056.00;;;;4936944;28;89004;-64
2021/11/04 01:40:12;;;;;;;7.23;5.67;;;7.40;99.90;7.30;99054.00;;;;4936582;28;117422;-65
2021/11/04 01:42:37;;;;;;;6.57;5.00;;;7.30;99.90;7.30;99050.00;;;;4936781;28;110486;-64
2021/11/04 01:45:04;;;;;;;6.67;4.80;;;7.40;99.90;7.40;99038.00;;;;4936789;28;108585;-64
2021/11/04 01:47:29;;;;;;;5.30;4.50;;;7.40;99.90;7.40;99023.00;;;;4937794;28;88205;-64
2021/11/04 01:49:55;;;;;;;9.30;5.27;;;7.50;99.90;7.40;99007.00;;;;4936970;28;87699;-64
2021/11/04 01:52:22;;;;;;;8.20;4.90;;;7.50;99.90;7.50;99010.00;;;;4951316;28;89103;-64
2021/11/04 01:54:47;;;;;;;7.77;4.23;;;7.50;99.90;7.50;99011.00;;;;4936252;28;107030;-63
2021/11/04 01:57:13;;;;;;;7.80;4.90;;;7.50;99.90;7.50;99017.00;;;;4935600;28;117972;-64
2021/11/04 01:59:39;;;;;;;10.10;5.23;;;7.60;99.90;7.60;98997.00;;;;4937266;28;89056;-64
2021/11/04 02:02:14;;;;;;;7.77;4.73;;;7.60;99.90;7.60;99011.00;;;;4935591;28;111544;-64
2021/11/04 02:04:52;;;;;;;9.90;5.00;;;7.70;99.90;7.60;99007.00;;;;4951508;28;96901;-64
2021/11/04 02:07:49;;;;;;;5.53;5.00;;;7.70;99.90;7.60;99005.00;;;;4951342;28;98382;-64
2021/11/04 02:10:38;;;;;;;8.03;5.20;;;7.70;99.90;7.60;99004.00;;;;4951115;28;87858;-64
2021/11/04 02:13:44;;;;;;;4.80;4.20;;;7.60;99.90;7.60;99005.00;;;;4934593;28;95696;-65
2021/11/04 02:16:10;;;;;;;7.33;5.27;;;7.70;99.90;7.70;98998.00;;;;4936817;28;88056;-64
2021/11/04 02:18:37;;;;;;;8.73;4.83;;;7.70;99.90;7.70;98998.00;;;;4950964;28;105145;-64
2021/11/04 02:21:13;;;;;;;6.70;5.40;;;7.80;99.90;7.70;98994.00;;;;4936310;28;103870;-65
2021/11/04 02:23:43;;;;;;;7.03;5.30;;;7.80;99.90;7.70;98991.00;;;;4951560;28;87929;-64
2021/11/04 02:26:09;;;;;;;6.73;5.47;;;7.70;99.90;7.70;98992.00;;;;4934978;28;88246;-64
2021/11/04 02:28:39;;;;;;;8.13;5.30;;;7.80;99.90;7.80;98998.00;;;;4936335;28;95314;-64
2021/11/04 02:31:08;;;;;;;7.87;5.50;;;7.80;99.90;7.80;98993.00;;;;4936705;28;88887;-64
2021/11/04 02:33:37;;;;;;;5.53;4.63;;;7.80;99.90;7.80;98982.00;;;;4936642;28;87576;-64
2021/11/04 02:36:05;;;;;;;7.37;5.43;;;7.80;99.90;7.80;98984.00;;;;4936393;28;87561;-65
2021/11/04 02:38:32;;;;;;;7.47;4.77;;;7.80;99.90;7.80;98969.00;;;;4951572;28;87689;-65
2021/11/04 02:41:01;;;;;;;8.23;4.57;;;7.90;99.90;7.80;98960.00;;;;4936823;28;87678;-64
2021/11/04 02:43:30;;;;;;;5.80;4.73;;;7.80;99.90;7.80;98961.00;;;;4936036;28;87898;-65
2021/11/04 02:45:59;;;;;;;6.20;5.27;;;7.90;99.90;7.80;98953.00;;;;4936153;28;88594;-65
2021/11/04 02:48:26;;;;;;;6.53;4.10;;;7.90;99.90;7.90;98942.00;;;;4936340;28;88398;-65
2021/11/04 02:50:52;;;;;;;7.57;5.20;;;7.90;99.90;7.90;98939.00;;;;4951304;28;87984;-64
2021/11/04 02:53:25;;;;;;;6.33;4.57;;;8.00;99.90;7.90;98936.00;;;;4936552;28;88030;-64
2021/11/04 02:55:52;;;;;;;8.13;5.77;;;8.00;99.90;8.00;98938.00;;;;4936561;28;87842;-65
2021/11/04 02:58:18;;;;;;;8.07;5.23;;;8.00;99.90;8.00;98936.00;;;;4936153;28;101984;-64
2021/11/04 03:00:51;;;;;;;6.07;4.53;;;8.00;99.90;8.00;98916.00;;;;4936197;28;88396;-65
2021/11/04 03:03:18;;;;;;;5.93;4.27;;;8.00;99.90;8.00;98906.00;;;;4934266;28;95808;-65
2021/11/04 03:05:44;;;;;;;8.77;4.80;;;8.10;99.90;8.00;98902.00;;;;4936026;28;93670;-64
2021/11/04 03:08:10;;;;;;;6.97;5.10;;;8.10;99.90;8.00;98892.00;;;;4935193;28;100399;-63
2021/11/04 03:10:36;;;;;;;7.00;5.07;;;8.20;99.90;8.10;98895.00;;;;4933955;28;117083;-64
2021/11/04 03:13:03;;;;;;;7.77;5.20;;;8.10;99.90;8.10;98890.00;;;;4936021;28;102003;-64
2021/11/04 03:15:34;;;;;;;5.80;5.13;;;8.10;99.90;8.10;98895.00;;;;4935507;28;87653;-63
2021/11/04 03:18:01;;;;;;;6.10;4.77;;;8.20;99.90;8.10;98896.00;;;;4950698;28;87907;-63
2021/11/04 03:20:27;;;;;;;7.10;4.40;;;8.10;99.90;8.10;98889.00;;;;4936055;28;87847;-64
2021/11/04 03:22:53;;;;;;;10.63;4.90;;;8.20;99.90;8.10;98888.00;;;;4935439;28;87624;-64
2021/11/04 03:25:20;;;;;;;11.77;5.17;;;8.20;99.90;8.10;98888.00;;;;4949835;28;109120;-63
2021/11/04 03:27:51;;;;;;;8.37;5.00;;;8.20;99.90;8.20;98893.00;;;;4949470;28;117350;-64
2021/11/04 03:30:22;;;;;;;6.13;4.63;;;8.20;99.90;8.20;98889.00;;;;4935969;28;88120;-63
2021/11/04 03:32:48;;;;;;;6.70;4.97;;;8.30;99.90;8.20;98886.00;;;;4935951;28;87987;-65
2021/11/04 03:35:16;;;;;;;10.30;5.23;;;8.30;99.90;8.20;98892.00;;;;4949721;28;88692;-64
2021/11/04 03:37:47;;;;;;;5.33;4.50;;;8.30;99.90;8.30;98882.00;;;;4951650;28;88455;-65
2021/11/04 03:40:15;;;;;;;7.30;5.67;;;8.30;99.90;8.30;98874.00;;;;4939512;28;88424;-66
2021/11/04 03:42:41;;;;;;;7.30;4.43;;;8.40;99.90;8.30;98884.00;;;;4953700;28;88199;-66
2021/11/04 03:45:09;;;;;;;4.63;4.03;;;8.30;99.90;8.40;98882.00;;;;4939025;28;95235;-66
2021/11/04 03:47:36;;;;;;;5.40;4.00;;;8.40;99.90;8.40;98886.00;;;;4953605;28;88740;-66
2021/11/04 03:50:05;;;;;;;7.97;4.93;;;8.50;99.90;8.40;98895.00;;;;4939148;28;88465;-66
2021/11/04 03:52:31;;;;;;;8.43;6.00;;;8.50;99.90;8.40;98887.00;;;;4937508;28;87158;-67
2021/11/04 03:54:57;;;;;;;7.60;4.37;;;8.50;99.90;8.40;98892.00;;;;4953469;28;87905;-66
2021/11/04 03:57:25;;;;;;;6.73;5.17;;;8.50;99.90;8.40;98879.00;;;;4939283;28;87976;-65
2021/11/04 03:59:52;;;;;;;9.40;5.37;;;8.50;99.90;8.50;98879.00;;;;4938649;28;88840;-65
2021/11/04 04:02:22;;;;;;;7.57;4.83;;;8.60;99.90;8.50;98877.00;;;;4939240;28;87856;-65
2021/11/04 04:04:55;;;;;;;5.30;4.07;;;8.50;99.90;8.50;98878.00;;;;4953433;28;87954;-65
2021/11/04 04:07:28;;;;;;;6.63;4.57;;;8.50;99.90;8.50;98875.00;;;;4937374;28;88444;-65
2021/11/04 04:09:55;;;;;;;8.93;5.17;;;8.50;99.90;8.50;98878.00;;;;4937556;28;107373;-65
2021/11/04 04:12:21;;;;;;;10.97;5.23;;;8.50;99.90;8.50;98879.00;;;;4937072;28;99340;-66
2021/11/04 04:14:47;;;;;;;6.57;4.93;;;8.60;99.90;8.50;98871.00;;;;4937477;28;95874;-65
2021/11/04 04:17:13;;;;;;;6.23;5.20;;;8.60;99.90;8.50;98874.00;;;;4938105;28;116965;-65
2021/11/04 04:19:38;;;;;;;7.00;5.27;;;8.60;99.90;8.50;98868.00;;;;4937774;28;98629;-64
2021/11/04 04:22:05;;;;;;;6.50;5.17;;;8.60;99.90;8.60;98865.00;;;;4938015;28;108858;-64
2021/11/04 04:24:32;;;;;;;7.63;5.77;;;8.60;99.90;8.60;98865.00;;;;4938698;28;88708;-64
2021/11/04 04:26:59;;;;;;;9.23;5.10;;;8.60;99.90;8.60;98855.00;;;;4937714;28;88008;-65
2021/11/04 04:29:25;;;;;;;8.83;5.27;;;8.60;99.90;8.60;98858.00;;;;4938707;28;87999;-64
2021/11/04 04:31:51;;;;;;;6.80;4.97;;;8.60;99.90;8.60;98848.00;;;;4944224;28;87971;-64
2021/11/04 04:34:16;;;;;;;6.97;5.30;;;8.60;99.90;8.60;98850.00;;;;4938273;28;88067;-63
2021/11/04 04:36:42;;;;;;;8.20;4.73;;;8.60;99.90;8.50;98829.00;;;;4938479;28;87892;-65
2021/11/04 04:39:08;;;;;;;7.80;5.33;;;8.60;99.90;8.50;98824.00;;;;4937406;28;117205;-66
2021/11/04 04:41:34;;;;;;;7.33;5.17;;;8.60;99.90;8.50;98807.00;;;;4938498;28;86822;-65
2021/11/04 04:44:00;;;;;;;7.57;5.00;;;8.60;99.90;8.50;98793.00;;;;4937909;28;108940;-66
2021/11/04 04:46:25;;;;;;;6.57;5.30;;;8.60;99.90;8.40;98792.00;;;;4936648;28;119653;-64
2021/11/04 04:48:52;;;;;;;10.67;5.60;;;8.50;99.90;8.40;98771.00;;;;4937029;28;96831;-64
2021/11/04 04:51:18;;;;;;;8.93;5.43;;;8.50;99.90;8.40;98778.00;;;;4937478;28;87901;-64
2021/11/04 04:53:44;;;;;;;15.83;6.50;;;8.40;99.90;8.40;98778.00;;;;4938042;28;87642;-64
2021/11/04 04:56:13;;;;;;;7.53;6.20;;;8.40;99.90;8.40;98783.00;;;;4937408;28;105311;-65
2021/11/04 04:58:38;;;;;;;6.60;5.57;;;8.40;99.90;8.30;98775.00;;;;4936844;28;116060;-65
2021/11/04 05:01:04;;;;;;;10.13;7.40;;;8.40;99.90;8.40;98788.00;;;;4937149;28;110384;-64
2021/11/04 05:03:30;;;;;;;8.17;5.70;;;8.40;99.90;8.40;98771.00;;;;4937002;28;109118;-64
2021/11/04 05:05:56;;;;;;;10.80;6.57;;;8.40;99.90;8.30;98765.00;;;;4937534;28;87957;-65
2021/11/04 05:08:22;;;;;;;11.27;7.03;;;8.40;99.90;8.30;98766.00;;;;4937820;28;87564;-64
2021/11/04 05:10:47;;;;;;;7.87;6.37;;;8.40;99.90;8.30;98763.00;;;;4938063;28;87760;-65
2021/11/04 05:13:13;;;;;;;8.90;6.43;;;8.40;99.90;8.30;98750.00;;;;4936448;28;106676;-65
2021/11/04 05:15:39;;;;;;;12.80;7.60;;;8.40;99.90;8.30;98736.00;;;;4936266;28;116885;-65
2021/11/04 05:18:07;;;;;;;9.80;6.67;;;8.30;99.90;8.20;98736.00;;;;4937580;28;87948;-65
2021/11/04 05:20:37;;;;;;;12.73;6.60;;;8.30;99.90;8.20;98735.00;;;;4937210;28;87709;-66
2021/11/04 05:23:03;;;;;;;7.90;6.63;;;8.30;99.90;8.20;98739.00;;;;4937970;28;87691;-66
2021/11/04 05:25:29;;;;;;;9.57;7.40;;;8.20;99.90;8.10;98732.00;;;;4936436;28;106967;-66
2021/11/04 05:27:55;;;;;;;11.63;7.23;;;8.20;99.90;8.10;98728.00;;;;4937278;28;88810;-67
2021/11/04 05:30:21;;;;;;;9.00;6.30;;;8.20;99.90;8.10;98727.00;;;;4951285;28;110082;-66
2021/11/04 05:32:47;;;;;;;13.67;7.73;;;8.20;99.90;8.10;98720.00;;;;4936540;28;109215;-67
2021/11/04 05:35:15;;;;;;;13.43;7.53;;;8.20;99.90;8.00;98719.00;;;;4937016;28;88899;-69
2021/11/04 05:37:40;;;;;;;12.47;7.90;;;8.10;99.90;8.00;98722.00;;;;4936264;28;88646;-69
2021/11/04 05:40:07;;;;;;;11.97;7.83;;;8.10;99.90;8.00;98713.00;;;;4935780;28;111517;-69
2021/11/04 05:42:33;;;;;;;9.50;8.40;;;8.10;99.90;8.00;98721.00;;;;4935073;28;91730;-70
2021/11/04 05:44:59;;;;;;;12.77;7.20;;;8.00;99.90;8.00;98700.00;;;;4937094;28;88023;-70
2021/11/04 05:47:25;;;;;;;13.00;7.80;;;8.00;99.90;8.00;98708.00;;;;4936790;28;88731;-69
2021/11/04 05:49:51;;;;;;;12.37;8.43;;;8.10;99.90;8.00;98710.00;;;;4936237;28;98783;-70
2021/11/04 05:52:17;;;;;;;16.50;9.43;;;8.00;99.90;7.90;98710.00;;;;4937045;28;87902;-71
2021/11/04 05:54:43;;;;;;;15.40;9.23;;;8.00;99.90;7.90;98712.00;;;;4937296;28;87287;-68
2021/11/04 05:57:08;;;;;;;12.33;8.60;;;8.00;99.90;7.90;98699.00;;;;4936033;28;88437;-69
2021/11/04 05:59:34;;;;;;;12.80;7.90;;;8.00;99.90;7.80;98700.00;;;;4937122;28;87723;-71
2021/11/04 06:02:00;;;;;;;13.97;8.83;;;7.90;99.90;7.80;98699.00;;;;4935751;28;103026;-73
2021/11/04 06:04:32;;;;;;;15.10;9.87;;;7.80;99.90;7.70;98700.00;;;;4936026;28;89201;-73
2021/11/04 06:06:58;;;;;;;11.67;8.37;;;7.80;99.90;7.60;98694.00;;;;4936273;28;88197;-70
2021/11/04 06:09:23;;;;;;;13.27;9.27;;;7.70;99.90;7.60;98695.00;;;;4935903;28;108363;-72
2021/11/04 06:11:50;;;;;;;12.40;8.90;;;7.70;99.90;7.50;98689.00;;;;4936131;28;90495;-69
2021/11/04 06:14:16;;;;;;;19.13;9.60;;;7.60;99.90;7.50;98674.00;;;;4936963;28;88952;-70
2021/11/04 06:16:42;;;;;;;15.20;10.23;;;7.60;99.90;7.50;98676.00;;;;4935915;28;88302;-69
2021/11/04 06:19:07;;;;;;;17.37;9.87;;;7.50;99.90;7.50;98684.00;;;;4935978;28;108916;-70
2021/11/04 06:21:33;;;;;;;15.10;10.83;;;7.60;99.90;7.40;98683.00;;;;4935610;28;108724;-68
2021/11/04 06:23:59;;;;;;;17.10;9.70;;;7.50;99.90;7.40;98669.00;;;;4948537;28;116237;-67
2021/11/04 06:26:24;;;;;;;15.87;9.50;;;7.40;99.90;7.40;98672.00;;;;4934822;28;118009;-68
2021/11/04 06:28:50;;;;;;;17.67;11.73;;;7.50;99.90;7.40;98662.00;;;;4935241;28;110487;-67
2021/11/04 06:31:16;;;;;;;15.67;9.90;;;7.40;99.90;7.40;98663.00;;;;4934749;28;94871;-68
2021/11/04 06:33:42;;;;;;;16.07;10.10;;;7.40;99.90;7.40;98663.00;;;;4936911;28;88267;-67
2021/11/04 06:36:07;;;;;;;14.63;10.57;;;7.40;99.90;7.40;98661.00;;;;4935213;28;87843;-68
2021/11/04 06:38:34;;;;;;;13.03;9.40;;;7.50;99.90;7.40;98660.00;;;;4934715;28;114674;-65
2021/11/04 06:41:01;;;;;;;14.50;10.43;;;7.50;99.90;7.40;98658.00;;;;4936574;28;87715;-67
2021/11/04 06:43:27;;;;;;;16.63;9.63;;;7.40;99.90;7.40;98660.00;;;;4950104;28;88368;-67
2021/11/04 06:45:56;;;;;;;17.67;9.87;;;7.50;99.90;7.40;98653.00;;;;4935944;28;88136;-67
2021/11/04 06:48:48;;;;;;;15.03;10.07;;;7.50;99.90;7.40;98647.00;;;;4936633;28;88049;-67
2021/11/04 06:51:21;;;;;;;22.60;13.67;;;7.50;99.90;7.50;98649.00;;;;4934865;28;88669;-66
2021/11/04 06:53:55;;;;;;;20.33;12.97;;;7.60;99.90;7.50;98653.00;;;;4935722;28;88285;-66
2021/11/04 06:56:23;;;;;;;19.73;11.93;;;7.60;99.90;7.60;98651.00;;;;4949197;28;87781;-67
2021/11/04 06:58:52;;;;;;;14.40;10.43;;;7.70;99.90;7.60;98654.00;;;;4934190;28;87811;-65
2021/11/04 07:01:21;;;;;;;21.37;13.73;;;7.60;99.90;7.60;98659.00;;;;4935645;28;87964;-66
2021/11/04 07:04:04;;;;;;;20.83;12.90;;;7.70;99.90;7.60;98652.00;;;;4935190;28;88594;-66
2021/11/04 07:06:34;;;;;;;28.13;16.07;;;7.70;99.90;7.60;98653.00;;;;4949363;28;92451;-66
2021/11/04 07:09:06;;;;;;;30.17;13.93;;;7.70;99.90;7.70;98663.00;;;;4936350;28;87158;-67
2021/11/04 07:11:32;;;;;;;25.60;13.90;;;8.10;99.90;7.70;98653.00;;;;4933171;28;87846;-67
2021/11/04 07:13:59;;;;;;;25.80;14.73;;;7.70;99.90;7.70;98649.00;;;;4938590;28;88740;-67
2021/11/04 07:16:28;;;;;;;28.17;16.03;;;7.70;99.90;7.70;98645.00;;;;4936942;28;88644;-67
2021/11/04 07:18:57;;;;;;;27.93;14.97;;;7.70;99.90;7.70;98643.00;;;;4940291;28;87987;-66
2021/11/04 07:21:38;;;;;;;16.17;9.83;;;7.70;99.90;7.70;98639.00;;;;4953470;28;88122;-66
2021/11/04 07:24:09;;;;;;;14.97;9.77;;;7.80;99.90;7.70;98650.00;;;;4954446;28;87884;-67
2021/11/04 07:26:39;;;;;;;15.70;10.93;;;7.70;99.90;7.60;98639.00;;;;4938058;28;88773;-67
2021/11/04 07:29:08;;;;;;;18.13;12.60;;;7.70;99.90;7.60;98631.00;;;;4938269;28;87669;-67
2021/11/04 07:31:37;;;;;;;13.53;10.63;;;7.70;99.90;7.60;98632.00;;;;4938245;28;87849;-66
2021/11/04 07:34:07;;;;;;;14.17;9.07;;;8.10;99.90;7.60;98625.00;;;;4939635;28;87422;-66
2021/11/04 07:36:35;;;;;;;14.80;9.37;;;7.70;99.90;7.60;98630.00;;;;4938524;28;88006;-66
2021/11/04 07:39:03;;;;;;;11.43;8.67;;;7.70;99.90;7.60;98631.00;;;;4939811;28;87824;-66
2021/11/04 07:41:31;;;;;;;13.73;8.60;;;7.70;99.90;7.60;98626.00;;;;4937653;28;88712;-67
2021/11/04 07:43:58;;;;;;;8.87;6.73;;;7.70;99.90;7.60;98614.00;;;;4953881;28;88475;-65
2021/11/04 07:46:25;;;;;;;11.40;7.97;;;7.70;99.90;7.60;98626.00;;;;4938678;28;87651;-67
2021/11/04 07:48:50;;;;;;;12.70;8.43;;;7.70;99.90;7.60;98622.00;;;;4938660;28;88287;-66
2021/11/04 07:51:16;;;;;;;12.03;7.37;;;7.70;99.90;7.60;98607.00;;;;4953182;28;90331;-66
2021/11/04 07:53:42;;;;;;;12.43;8.77;;;7.70;99.90;7.60;98611.00;;;;4938209;28;117653;-67
2021/11/04 07:56:09;;;;;;;12.50;8.00;;;7.70;99.90;7.60;98598.00;;;;4951948;28;117187;-67
2021/11/04 07:58:38;;;;;;;37.03;23.77;;;7.70;99.90;7.70;98588.00;;;;4938985;28;87084;-67
2021/11/04 08:01:05;;;;;;;29.40;19.07;;;7.70;99.90;7.70;98588.00;;;;4937717;28;94717;-66
2021/11/04 08:03:32;;;;;;;15.83;12.43;;;7.70;99.90;7.60;98581.00;;;;4940444;28;89086;-66
2021/11/04 08:05:58;;;;;;;10.43;7.73;;;7.80;99.90;7.60;98571.00;;;;4918244;28;88955;-68
2021/11/04 08:08:23;;;;;;;13.33;8.77;;;7.70;99.90;7.60;98575.00;;;;4918332;28;99544;-67
2021/11/04 08:10:56;;;;;;;13.33;7.50;;;8.50;99.90;7.70;98565.00;;;;4918436;28;108215;-67
2021/11/04 08:13:22;;;;;;;12.33;7.87;;;7.70;99.90;7.70;98569.00;;;;4918713;28;88973;-68
2021/11/04 08:15:48;;;;;;;14.37;7.33;;;7.70;99.90;7.70;98565.00;;;;4918174;28;105644;-68
2021/11/04 08:18:14;;;;;;;9.23;6.80;;;7.70;99.90;7.70;98576.00;;;;4919385;28;87825;-67
2021/11/04 08:20:40;;;;;;;11.03;7.40;;;7.70;99.90;7.70;98575.00;;;;4918613;28;87828;-67
2021/11/04 08:23:15;;;;;;;12.77;9.03;;;7.80;99.90;7.70;98566.00;;;;4917922;28;114785;-66
2021/11/04 08:25:42;;;;;;;9.47;7.33;;;7.80;99.90;7.80;98572.00;;;;4934038;28;88014;-66
2021/11/04 08:28:08;;;;;;;10.30;7.17;;;7.80;99.90;7.80;98585.00;;;;4937273;28;99562;-66
2021/11/04 08:30:34;;;;;;;7.50;6.43;;;7.80;99.90;7.80;98571.00;;;;4938034;28;89236;-66
2021/11/04 08:33:01;;;;;;;9.03;6.00;;;7.90;99.90;7.90;98571.00;;;;4937106;28;87584;-66
2021/11/04 08:35:27;;;;;;;10.13;5.83;;;7.90;99.90;7.90;98558.00;;;;4937683;28;88563;-66
2021/11/04 08:37:54;;;;;;;9.67;6.20;;;7.90;99.90;7.90;98557.00;;;;4938086;28;87703;-67
2021/11/04 08:40:20;;;;;;;9.60;6.53;;;8.00;99.90;7.90;98541.00;;;;4934496;28;108370;-66
2021/11/04 08:42:46;;;;;;;10.93;5.97;;;8.00;99.90;7.90;98534.00;;;;4937375;28;88399;-66
2021/11/04 08:45:12;;;;;;;7.60;5.80;;;8.00;99.90;7.90;98507.00;;;;4938214;28;93055;-67
2021/11/04 08:47:39;;;;;;;15.33;7.30;;;8.00;99.90;7.90;98498.00;;;;4952765;28;87205;-67
2021/11/04 08:50:09;;;;;;;10.10;7.07;;;8.00;99.90;7.90;98473.00;;;;4938315;28;87880;-67
2021/11/04 08:52:36;;;;;;;14.03;6.77;;;8.00;99.90;7.90;98466.00;;;;4937108;28;105910;-67
2021/11/04 08:55:05;;;;;;;10.40;6.87;;;7.90;99.90;7.90;98476.00;;;;4937554;28;88670;-67
2021/11/04 08:57:31;;;;;;;11.50;6.93;;;7.90;99.90;7.90;98480.00;;;;4937353;28;89151;-66
2021/11/04 08:59:57;;;;;;;13.80;6.87;;;7.90;99.90;7.90;98481.00;;;;4936626;28;108878;-66
2021/11/04 09:02:22;;;;;;;12.53;7.40;;;8.00;99.90;8.00;98472.00;;;;4936510;28;117943;-67
2021/11/04 09:04:49;;;;;;;9.10;6.63;;;8.00;99.90;8.00;98467.00;;;;4937810;28;87749;-66
2021/11/04 09:07:17;;;;;;;8.93;6.67;;;8.00;99.90;8.00;98465.00;;;;4935855;28;108819;-67
2021/11/04 09:09:44;;;;;;;8.63;6.37;;;8.00;99.90;8.00;98471.00;;;;4938412;28;87771;-66
2021/11/04 09:12:11;;;;;;;10.90;6.47;;;8.10;99.90;8.10;98478.00;;;;4951775;28;87262;-65
2021/11/04 09:14:37;;;;;;;15.13;8.43;;;8.10;99.90;8.10;98480.00;;;;4937627;28;88138;-66
2021/11/04 09:17:04;;;;;;;8.63;7.20;;;8.20;99.90;8.10;98471.00;;;;4937137;28;87601;-65
2021/11/04 09:19:29;;;;;;;9.57;6.67;;;8.60;99.90;8.10;98479.00;;;;4936553;28;88784;-65
2021/11/04 09:21:57;;;;;;;6.47;5.27;;;8.20;99.90;8.20;98482.00;;;;4936476;28;105320;-66
2021/11/04 09:24:24;;;;;;;9.37;5.60;;;8.20;99.90;8.20;98480.00;;;;4937363;28;87797;-67
2021/11/04 09:26:49;;;;;;;7.07;5.50;;;8.20;99.90;8.20;98490.00;;;;4951417;28;96800;-66
2021/11/04 09:29:15;;;;;;;7.97;5.50;;;8.20;99.90;8.20;98490.00;;;;4941693;28;110226;-66
2021/11/04 09:31:41;;;;;;;10.23;5.57;;;8.30;99.90;8.10;98486.00;;;;4936103;28;118173;-66
2021/11/04 09:34:07;;;;;;;8.50;5.10;;;8.20;99.90;8.10;98483.00;;;;4937305;28;88079;-66
2021/11/04 09:36:33;;;;;;;6.73;4.20;;;8.10;99.90;8.10;98478.00;;;;4935676;28;88482;-67
2021/11/04 09:39:01;;;;;;;5.50;4.47;;;8.10;99.90;8.10;98478.00;;;;4937601;28;87844;-67
2021/11/04 09:41:32;;;;;;;6.87;4.10;;;8.10;99.90;8.10;98490.00;;;;4936193;28;89314;-66
2021/11/04 09:43:59;;;;;;;6.53;4.67;;;8.10;99.90;8.10;98481.00;;;;4936761;28;88787;-65
2021/11/04 09:46:25;;;;;;;7.97;4.03;;;8.10;99.90;8.10;98475.00;;;;4937120;28;87608;-67
2021/11/04 09:48:52;;;;;;;5.23;4.00;;;8.10;99.90;8.00;98474.00;;;;4936625;28;87890;-66
2021/11/04 09:51:19;;;;;;;3.87;3.37;;;8.10;99.90;8.00;98464.00;;;;4936560;28;88349;-66
2021/11/04 09:53:47;;;;;;;6.80;4.60;;;9.00;99.90;8.00;98477.00;;;;4936033;28;88380;-66
2021/11/04 09:56:14;;;;;;;7.10;4.13;;;8.10;99.90;8.00;98478.00;;;;4937111;28;87862;-66
2021/11/04 09:58:40;;;;;;;4.93;3.73;;;8.10;99.90;8.00;98486.00;;;;4936401;28;87959;-67
2021/11/04 10:01:27;;;;;;;4.77;4.03;;;8.10;99.90;7.90;98490.00;;;;4936353;28;115280;-66
2021/11/04 10:03:58;;;;;;;5.93;3.33;;;8.00;99.90;7.80;98490.00;;;;4951217;28;87769;-67
2021/11/04 10:06:30;;;;;;;3.73;3.10;;;7.90;99.90;7.80;98477.00;;;;4936696;28;88052;-67
2021/11/04 10:09:00;;;;;;;6.63;3.97;;;7.90;99.90;7.80;98482.00;;;;4936064;28;88767;-66
2021/11/04 10:11:35;;;;;;;3.43;2.97;;;7.80;99.90;7.70;98479.00;;;;4935513;28;89027;-66
2021/11/04 10:14:04;;;;;;;8.70;3.57;;;7.80;99.90;7.70;98472.00;;;;4936825;28;87681;-67
2021/11/04 10:16:32;;;;;;;4.00;2.93;;;7.80;99.90;7.70;98476.00;;;;4936128;28;87759;-66
2021/11/04 10:19:07;;;;;;;5.13;3.07;;;7.80;99.90;7.60;98468.00;;;;4936527;28;87791;-68
2021/11/04 10:21:43;;;;;;;2.83;2.50;;;7.70;99.90;7.60;98469.00;;;;4951574;28;87779;-67
2021/11/04 10:24:25;;;;;;;6.47;3.53;;;7.80;99.90;7.50;98462.00;;;;4935766;28;88138;-67
2021/11/04 10:26:54;;;;;;;2.83;2.37;;;7.70;99.90;7.50;98451.00;;;;4917648;28;87101;-67
2021/11/04 10:29:25;;;;;;;6.10;3.03;;;7.60;99.90;7.50;98450.00;;;;4917111;28;87890;-67
2021/11/04 10:31:57;;;;;;;2.90;2.40;;;7.60;99.90;7.60;98460.00;;;;4932957;28;88513;-66
2021/11/04 10:34:29;;;;;;;3.47;2.93;;;7.60;99.90;7.60;98450.00;;;;4935824;28;89041;-69
2021/11/04 10:37:20;;;;;;;2.83;2.30;;;7.60;99.90;7.60;98462.00;;;;4935991;28;87830;-67
2021/11/04 10:39:49;;;;;;;4.60;2.97;;;7.60;99.90;7.60;98473.00;;;;4926752;28;87841;-68
2021/11/04 10:42:15;;;;;;;3.60;2.23;;;7.60;99.90;7.60;98476.00;;;;4936368;28;88994;-68
2021/11/04 10:44:41;;;;;;;4.40;2.57;;;7.60;99.90;7.60;98478.00;;;;4936014;28;87672;-68
2021/11/04 10:47:07;;;;;;;2.30;2.10;;;7.60;99.90;7.50;98481.00;;;;4934993;28;111725;-67
2021/11/04 10:49:49;;;;;;;3.50;2.13;;;7.60;99.90;7.50;98489.00;;;;4935444;28;87732;-66
2021/11/04 10:52:22;;;;;;;3.40;2.20;;;7.60;99.90;7.40;98481.00;;;;4936262;28;88498;-65
2021/11/04 10:54:50;;;;;;;3.00;2.13;;;7.60;99.90;7.40;98482.00;;;;4950484;28;87829;-65
2021/11/04 10:57:39;;;;;;;2.33;2.00;;;7.50;99.90;7.40;98489.00;;;;4935203;28;88635;-66
2021/11/04 11:00:20;;;;;;;2.90;2.00;;;7.50;99.90;7.40;98496.00;;;;4949828;28;88856;-67
2021/11/04 11:03:00;;;;;;;2.57;1.70;;;7.50;99.90;7.30;98498.00;;;;4935762;28;89725;-67
2021/11/04 11:05:34;;;;;;;1.87;1.77;;;7.40;99.90;7.30;98494.00;;;;4933688;28;89702;-67
2021/11/04 11:08:01;;;;;;;4.10;2.47;;;7.40;99.90;7.30;98498.00;;;;4935755;28;87834;-66
2021/11/04 11:10:27;;;;;;;4.73;2.00;;;7.60;99.90;7.30;98501.00;;;;4950031;28;87711;-67